• Join FlightAware (Why Join?)
  • Login
  • US Flag 
02:36PM EDT


 

Airport Tracker/Info


-or-


 

Live Flight TrackerFlight Track Log ✈ AWE3794 ✈ 23-Feb-2014 ✈ KTRI - KCLT

Flight Track Log - Related Links

Times and Time Zones

All times are in EST time to prevent confusion due to time zone crossing. See the AWE3794 flight status page for this flight to view local times or setup timezone preferences in your user account.

Time Position Orientation Groundspeed Altitude Reporting Facility
EST Latitude Longitude Course Direction KTS MPH feet Rate Location/Type
05:42AM 36.2529 -82.0130 152° Southeast  Level FlightAware Approximate
05:42AM 36.3544 -82.4456 153° Southeast 309 356 9,300  Level Atlanta Center
05:43AM 36.1264 -81.9285 152° Southeast  Level FlightAware Approximate
05:43AM 36.2931 -82.3722 136° Southeast 298 343 11,000  Level Atlanta Center
05:44AM 35.9998 -81.8442 152° Southeast  Level FlightAware Approximate
05:44AM 36.2211 -82.2911 138° Southeast 331 381 11,000  Level Atlanta Center
05:45AM 35.8745 -81.7571 150° Southeast  Level FlightAware Approximate
05:45AM 36.1594 -82.2153 135° Southeast 346 398 11,000  Level Atlanta Center
05:46AM 35.7835 -81.6962 153° Southeast  Level FlightAware Approximate
05:46AM 36.0853 -82.1322 138° Southeast 354 407 11,000  Level Atlanta Center
05:47AM 36.0108 -82.0467 137° Southeast 359 413 11,000  Level Atlanta Center
05:48AM 35.9364 -81.9639 138° Southeast 359 413 11,000  Level Atlanta Center
05:49AM 35.8642 -81.8811 137° Southeast 359 413 11,000  Level Atlanta Center
05:50AM 35.8172 -81.8286 138° Southeast 364 419 11,000  Level Atlanta Center
05:50AM 35.7894 -81.7961 136° Southeast 359 413 11,000  Level Atlanta Center
05:50AM 35.7575 -81.7611 138° Southeast 363 418 11,000  Level Atlanta Center
05:51AM 35.7150 -81.7086 135° Southeast 359 413 11,000  Level Atlanta Center
05:51AM 35.6831 -81.6739 139° Southeast 362 417 11,000  Level Atlanta Center
05:52AM 35.6403 -81.6264 138° Southeast 359 413 11,000  Level Atlanta Center
05:52AM 35.6083 -81.5892 137° Southeast 363 418 11,000  Level Atlanta Center
05:53AM 35.5761 -81.5389 128° Southeast 359 413 11,000 -300 Level Atlanta Center
05:53AM 35.5564 -81.5014 123° Southeast 322 371 10,700 -1,140 Descending Atlanta Center
05:54AM 35.5406 -81.4406 108° East 324 373 9,900 -1,500 Descending Atlanta Center
05:55AM 35.5333 -81.3950 101° East 313 360 9,200 -1,500 Descending Atlanta Center
05:55AM 35.5194 -81.3392 107° East 310 357 8,400 -1,500 Descending Atlanta Center
05:56AM 35.5125 -81.2961 101° East 295 339 7,700 -1,740 Descending Atlanta Center
05:56AM 35.4961 -81.2278 106° East 305 351 6,700 -1,500 Descending Atlanta Center
05:57AM 35.4933 -81.1972 96° East 298 343 6,200 -1,500 Descending Atlanta Center
05:57AM 35.4772 -81.1289 106° East 300 345 5,200 -1,620 Descending Atlanta Center
05:58AM 35.4722 -81.0883 99° East 302 348 4,600 -1,140 Descending Atlanta Center
05:58AM 35.4583 -81.0328 107° East 295 339 4,100 -600 Descending Atlanta Center
05:59AM 35.4469 -81.0025 115° Southeast 247 284 4,000 -120 Descending Atlanta Center
05:59AM 35.4233 -80.9753 137° Southeast 228 262 4,000  Level Atlanta Center
06:00AM 35.4044 -80.9683 163° South 161 185 4,000 -540 Level Atlanta Center
06:01AM 35.3586 -80.9700 182° South 157 181 3,300 -780 Descending Atlanta Center
06:02AM 35.3125 -80.9642 174° South 162 186 2,500 -780 Descending Atlanta Center
06:03AM 35.2769 -80.9606 175° South 126 145 1,800 -720 Descending Atlanta Center
06:04AM 35.2436 -80.9567 175° South 118 136 1,100 -720 Descending Atlanta Center